createdAt,value
2022-12-15T00:00:30.934Z,30.20
2022-12-15T00:03:24.590Z,34.63
2022-12-15T00:06:10.765Z,30.10
2022-12-15T00:08:56.068Z,29.25
2022-12-15T00:11:41.393Z,37.42
2022-12-15T00:14:27.341Z,30.85
2022-12-15T00:17:14.340Z,34.92
2022-12-15T00:19:59.755Z,34.05
2022-12-15T00:22:44.927Z,31.45
2022-12-15T00:25:30.258Z,33.50
2022-12-15T00:28:17.937Z,35.03
2022-12-15T00:31:03.316Z,30.70
2022-12-15T00:33:50.384Z,32.10
2022-12-15T00:36:35.805Z,34.30
2022-12-15T00:39:04.324Z,36.53
2022-12-15T00:41:32.477Z,34.13
2022-12-15T00:44:00.595Z,32.78
2022-12-15T00:46:46.267Z,36.33
2022-12-15T00:49:30.019Z,30.88
2022-12-15T00:52:15.905Z,36.10
2022-12-15T00:55:01.486Z,33.80
2022-12-15T00:57:46.768Z,32.47
2022-12-15T01:00:32.961Z,35.17
2022-12-15T01:03:18.832Z,31.83
2022-12-15T01:06:05.983Z,30.05
2022-12-15T01:08:51.197Z,33.30
2022-12-15T01:11:36.582Z,38.72
2022-12-15T01:14:21.855Z,34.40
2022-12-15T01:17:07.204Z,33.53
2022-12-15T01:19:54.770Z,29.65
2022-12-15T01:22:24.713Z,29.98
2022-12-15T01:24:52.755Z,35.53
2022-12-15T01:27:23.263Z,36.40
2022-12-15T01:29:51.376Z,36.55
2022-12-15T01:32:19.363Z,31.25
2022-12-15T01:34:47.432Z,35.17
2022-12-15T01:37:15.573Z,34.22
2022-12-15T01:40:02.353Z,38.40
2022-12-15T01:42:32.756Z,36.10
2022-12-15T01:45:33.830Z,33.03
2022-12-15T01:48:06.162Z,35.00
2022-12-15T01:50:38.908Z,32.63
2022-12-15T01:53:07.060Z,31.85
2022-12-15T01:55:37.985Z,34.05
2022-12-15T01:58:09.189Z,33.80
2022-12-15T02:00:37.413Z,30.17
2022-12-15T02:03:07.180Z,33.10
2022-12-15T02:05:35.700Z,32.28
2022-12-15T02:08:04.968Z,39.03
2022-12-15T02:10:47.852Z,34.63
2022-12-15T02:13:26.078Z,33.00
2022-12-15T02:16:01.426Z,30.25
2022-12-15T02:18:36.439Z,30.00
2022-12-15T02:21:11.322Z,32.30
2022-12-15T02:24:25.150Z,33.75
2022-12-15T02:27:16.988Z,29.80
2022-12-15T02:32:33.061Z,24.58
2022-12-15T02:35:04.617Z,31.23
2022-12-15T02:40:01.874Z,25.13
2022-12-15T02:42:34.623Z,31.92
2022-12-15T02:45:06.826Z,30.02
2022-12-15T02:47:46.112Z,31.17
2022-12-15T02:50:32.153Z,26.80
2022-12-15T02:53:10.103Z,34.17
2022-12-15T02:55:50.388Z,32.47
2022-12-15T02:58:28.291Z,31.50
2022-12-15T03:01:01.382Z,28.52
2022-12-15T03:03:37.121Z,27.88
2022-12-15T03:06:08.419Z,32.97
2022-12-15T03:08:36.394Z,31.70
2022-12-15T03:11:04.748Z,28.58
2022-12-15T03:13:33.170Z,29.13
2022-12-15T03:16:02.204Z,29.58
2022-12-15T03:18:30.332Z,31.63
2022-12-15T03:20:59.779Z,30.10
2022-12-15T03:23:28.062Z,29.70
2022-12-15T03:25:56.924Z,27.58
2022-12-15T03:28:24.994Z,28.45
2022-12-15T03:30:53.076Z,33.33
2022-12-15T03:33:21.577Z,30.20
2022-12-15T03:35:49.846Z,25.45
2022-12-15T03:38:19.683Z,32.08
2022-12-15T03:40:47.739Z,32.83
2022-12-15T03:43:15.731Z,28.55
2022-12-15T03:45:43.985Z,27.35
2022-12-15T03:48:12.005Z,28.73
2022-12-15T03:50:40.832Z,28.05
2022-12-15T03:53:08.908Z,26.67
2022-12-15T03:55:38.388Z,24.45
2022-12-15T03:58:06.397Z,31.15
2022-12-15T04:00:34.807Z,30.90
2022-12-15T04:03:03.019Z,27.45
2022-12-15T04:05:35.485Z,27.60
2022-12-15T04:08:03.710Z,28.33
2022-12-15T04:10:34.946Z,26.90
2022-12-15T04:15:34.444Z,27.05
2022-12-15T04:18:03.446Z,29.00
2022-12-15T04:20:34.194Z,27.02
2022-12-15T04:23:02.259Z,24.48
2022-12-15T04:25:50.163Z,26.00
2022-12-15T04:28:37.011Z,23.95
2022-12-15T04:31:27.324Z,26.10
2022-12-15T04:34:17.909Z,28.25
2022-12-15T04:37:05.175Z,25.08
2022-12-15T04:39:52.738Z,24.33
2022-12-15T04:42:38.970Z,27.88
2022-12-15T04:45:29.233Z,25.67
2022-12-15T04:48:14.718Z,21.98
2022-12-15T04:51:00.192Z,23.08
2022-12-15T04:53:48.075Z,28.15
2022-12-15T04:56:34.348Z,25.52
2022-12-15T04:59:22.430Z,26.92
2022-12-15T05:02:09.302Z,25.48
2022-12-15T05:04:56.930Z,26.08
2022-12-15T05:07:43.212Z,25.65
2022-12-15T05:10:28.873Z,27.02
2022-12-15T05:13:14.207Z,26.70
2022-12-15T05:15:59.416Z,25.02
2022-12-15T05:18:46.139Z,29.25
2022-12-15T05:21:31.536Z,27.35
2022-12-15T05:24:16.710Z,27.50
2022-12-15T05:27:02.044Z,28.05
2022-12-15T05:29:47.368Z,23.00
2022-12-15T05:32:15.403Z,25.98
2022-12-15T05:34:44.821Z,23.92
2022-12-15T05:37:12.942Z,23.35
2022-12-15T05:39:43.443Z,24.98
2022-12-15T05:42:13.567Z,25.98
2022-12-15T05:44:41.602Z,26.98
2022-12-15T05:47:09.640Z,23.77
2022-12-15T05:49:37.695Z,25.25
2022-12-15T05:52:09.541Z,22.42
2022-12-15T05:54:37.606Z,24.27
2022-12-15T05:57:05.789Z,26.35
2022-12-15T05:59:33.811Z,24.15
2022-12-15T06:02:01.930Z,31.33
2022-12-15T06:04:30.107Z,26.33
2022-12-15T06:07:00.686Z,24.60
2022-12-15T06:09:30.105Z,27.30
2022-12-15T06:11:58.186Z,22.80
2022-12-15T06:14:26.154Z,22.98
2022-12-15T06:16:54.227Z,26.63
2022-12-15T06:19:22.541Z,25.38
2022-12-15T06:21:50.917Z,26.40
2022-12-15T06:24:19.029Z,27.35
2022-12-15T06:26:50.806Z,26.42
2022-12-15T06:29:21.138Z,27.80
2022-12-15T06:31:49.206Z,26.00
2022-12-15T06:34:18.705Z,23.90
2022-12-15T06:36:46.818Z,24.58
2022-12-15T06:39:16.583Z,25.05
2022-12-15T06:41:45.396Z,23.50
2022-12-15T06:44:18.049Z,25.48
2022-12-15T06:46:46.855Z,22.30
2022-12-15T06:49:15.604Z,28.90
2022-12-15T06:51:45.038Z,20.77
2022-12-15T06:54:13.332Z,25.58
2022-12-15T06:56:42.326Z,22.77
2022-12-15T06:59:12.249Z,24.52
2022-12-15T07:01:43.101Z,19.70
2022-12-15T07:04:11.812Z,21.38
2022-12-15T07:06:41.195Z,25.27
2022-12-15T07:09:16.201Z,25.45
2022-12-15T07:11:44.275Z,23.90
2022-12-15T07:14:14.627Z,24.85
2022-12-15T07:16:45.604Z,23.67
2022-12-15T07:19:14.034Z,21.83
2022-12-15T07:21:42.569Z,23.88
2022-12-15T07:24:12.661Z,26.10
2022-12-15T07:26:40.851Z,25.75
2022-12-15T07:29:08.948Z,25.38
2022-12-15T07:31:36.962Z,22.65
2022-12-15T07:34:06.410Z,20.42
2022-12-15T07:36:34.858Z,23.83
2022-12-15T07:39:06.836Z,24.83
2022-12-15T07:41:38.796Z,20.50
2022-12-15T07:44:06.823Z,23.42
2022-12-15T07:46:34.982Z,24.65
2022-12-15T07:49:07.437Z,24.88
2022-12-15T07:51:35.630Z,23.88
2022-12-15T07:54:03.633Z,26.27
2022-12-15T07:56:37.409Z,22.92
2022-12-15T07:59:07.669Z,19.73
2022-12-15T08:01:36.361Z,25.17
2022-12-15T08:04:04.512Z,26.20
2022-12-15T08:06:33.952Z,25.10
2022-12-15T08:09:02.055Z,25.83
2022-12-15T08:11:34.494Z,24.48
2022-12-15T08:14:04.316Z,23.90
2022-12-15T08:16:34.644Z,25.75
2022-12-15T08:19:03.007Z,23.23
2022-12-15T08:21:31.816Z,23.98
2022-12-15T08:24:02.004Z,23.98
2022-12-15T08:26:32.216Z,25.58
2022-12-15T08:29:40.546Z,25.80
2022-12-15T08:31:52.854Z,21.42
2022-12-15T08:34:21.580Z,24.75
2022-12-15T08:36:49.616Z,23.23
2022-12-15T08:39:20.190Z,22.80
2022-12-15T08:41:50.866Z,24.10
2022-12-15T08:44:18.903Z,20.85
2022-12-15T08:46:46.913Z,24.98
2022-12-15T08:49:21.222Z,28.02
2022-12-15T08:51:50.764Z,25.65
2022-12-15T08:54:21.613Z,22.92
2022-12-15T08:56:50.441Z,22.48
2022-12-15T08:59:20.902Z,20.30
2022-12-15T09:01:49.028Z,21.75
2022-12-15T09:04:19.680Z,17.58
2022-12-15T09:06:50.445Z,25.27
2022-12-15T09:09:21.442Z,23.30
2022-12-15T09:11:49.842Z,21.38
2022-12-15T09:14:20.623Z,22.95
2022-12-15T09:16:51.014Z,25.23
2022-12-15T09:19:22.292Z,22.20
2022-12-15T09:21:52.458Z,24.88
2022-12-15T09:24:32.214Z,22.75
2022-12-15T09:27:03.265Z,21.63
2022-12-15T09:29:31.582Z,22.73
2022-12-15T09:32:01.939Z,20.95
2022-12-15T09:34:30.027Z,21.02
2022-12-15T09:36:58.097Z,20.55
2022-12-15T09:39:27.596Z,22.13
2022-12-15T09:42:00.619Z,23.60
2022-12-15T09:44:31.479Z,19.52
2022-12-15T09:47:09.988Z,21.75
2022-12-15T09:50:03.366Z,22.92
2022-12-15T09:52:40.346Z,19.45
2022-12-15T09:55:20.214Z,23.58
2022-12-15T09:57:54.007Z,22.63
2022-12-15T10:00:25.847Z,23.48
2022-12-15T10:06:14.695Z,22.92
2022-12-15T10:08:39.383Z,21.67
2022-12-15T10:11:19.718Z,20.80
2022-12-15T10:13:53.895Z,22.35
2022-12-15T10:16:27.725Z,19.48
2022-12-15T10:19:06.016Z,22.77
2022-12-15T10:21:34.607Z,23.65
2022-12-15T10:24:15.312Z,22.33
2022-12-15T10:26:49.613Z,20.85
2022-12-15T10:29:30.121Z,21.75
2022-12-15T10:32:05.119Z,20.75
2022-12-15T10:34:38.053Z,21.95
2022-12-15T10:37:07.075Z,21.95
2022-12-15T10:39:40.499Z,23.25
2022-12-15T10:42:15.603Z,22.80
2022-12-15T10:44:45.248Z,18.33
2022-12-15T10:47:22.704Z,21.50
2022-12-15T10:49:51.401Z,18.98
2022-12-15T10:52:27.373Z,21.75
2022-12-15T10:54:56.606Z,26.02
2022-12-15T10:57:31.787Z,19.05
2022-12-15T11:00:30.273Z,21.45
2022-12-15T11:02:59.388Z,20.25
2022-12-15T11:05:28.035Z,20.30
2022-12-15T11:08:15.586Z,22.15
2022-12-15T11:11:09.325Z,22.58
2022-12-15T11:13:39.525Z,18.40
2022-12-15T11:16:18.303Z,17.27
2022-12-15T11:18:50.527Z,24.02
2022-12-15T11:21:25.625Z,20.27
2022-12-15T11:24:00.643Z,19.23
2022-12-15T11:26:41.670Z,19.73
2022-12-15T11:29:25.767Z,21.52
2022-12-15T11:31:55.108Z,19.48
2022-12-15T11:34:27.682Z,21.70
2022-12-15T11:37:08.687Z,23.42
2022-12-15T11:39:52.704Z,19.15
2022-12-15T11:42:31.488Z,17.73
2022-12-15T11:45:07.029Z,18.48
2022-12-15T11:47:43.223Z,19.27
2022-12-15T11:50:23.052Z,15.88
2022-12-15T11:53:01.830Z,19.60
2022-12-15T11:55:41.918Z,22.23
2022-12-15T11:58:40.337Z,20.67
2022-12-15T12:01:20.008Z,20.10
2022-12-15T12:06:35.953Z,21.63
2022-12-15T12:09:39.718Z,19.85
2022-12-15T12:12:22.361Z,21.50
2022-12-15T12:15:04.446Z,19.95
2022-12-15T12:17:43.311Z,21.98
2022-12-15T12:20:18.846Z,18.08
2022-12-15T12:22:58.605Z,21.75
2022-12-15T12:25:29.753Z,22.25
2022-12-15T12:28:03.746Z,17.35
2022-12-15T12:30:40.001Z,20.33
2022-12-15T12:33:14.639Z,19.48
2022-12-15T12:35:49.885Z,21.10
2022-12-15T12:38:23.744Z,20.10
2022-12-15T12:41:02.631Z,21.17
2022-12-15T12:43:35.861Z,22.30
2022-12-15T12:46:11.673Z,21.05
2022-12-15T12:48:44.926Z,22.85
2022-12-15T12:51:27.478Z,21.98
2022-12-15T12:53:56.619Z,21.15
2022-12-15T12:56:34.567Z,24.73
2022-12-15T12:59:07.812Z,25.33
2022-12-15T13:01:38.498Z,23.80
2022-12-15T13:04:12.919Z,26.63
2022-12-15T13:07:11.538Z,24.55
2022-12-15T13:09:43.117Z,21.52
2022-12-15T13:12:53.010Z,23.75
2022-12-15T13:15:35.115Z,23.58
2022-12-15T13:18:08.444Z,20.80
2022-12-15T13:20:39.374Z,21.40
2022-12-15T13:23:36.960Z,26.52
2022-12-15T13:40:33.938Z,7.40
2022-12-15T13:43:09.204Z,5.07
2022-12-15T13:45:48.827Z,5.18
2022-12-15T13:48:30.746Z,3.80
2022-12-15T13:51:03.307Z,5.80
2022-12-15T13:53:33.961Z,3.95
2022-12-15T13:56:06.895Z,3.42
2022-12-15T13:58:39.338Z,3.97
2022-12-15T14:01:19.131Z,4.28
2022-12-15T14:03:57.612Z,4.25
2022-12-15T14:11:51.256Z,4.10
2022-12-15T14:14:17.812Z,3.83
2022-12-15T14:16:46.802Z,4.32
2022-12-15T14:19:18.778Z,5.13
2022-12-15T14:21:50.068Z,3.80
2022-12-15T14:24:38.472Z,16.80
2022-12-15T14:27:09.078Z,5.50
2022-12-15T14:29:39.085Z,4.07
2022-12-15T17:59:41.424Z,21.98
2022-12-15T18:02:12.487Z,21.42
2022-12-15T18:04:40.821Z,19.13
2022-12-15T18:07:16.756Z,18.80
2022-12-15T18:11:53.643Z,18.60
2022-12-15T18:14:23.755Z,19.20
2022-12-15T18:16:52.295Z,18.70
2022-12-15T18:19:20.850Z,20.02
2022-12-15T18:21:49.497Z,17.33
2022-12-15T18:24:21.590Z,16.90
2022-12-15T18:34:21.443Z,13.00
2022-12-15T18:36:51.367Z,65.32
2022-12-15T18:43:25.676Z,61.78
